createdAt,value
2022-11-17T00:01:19.620Z,56.05
2022-11-17T00:03:48.698Z,54.41
2022-11-17T00:06:16.049Z,53.33
2022-11-17T00:08:43.217Z,51.75
2022-11-17T00:11:10.595Z,51.67
2022-11-17T00:13:56.265Z,53.66
2022-11-17T00:16:23.657Z,52.90
2022-11-17T00:19:09.687Z,52.73
2022-11-17T00:21:37.137Z,52.07
2022-11-17T00:24:04.298Z,54.90
2022-11-17T00:26:32.306Z,53.85
2022-11-17T00:29:00.877Z,53.19
2022-11-17T00:31:47.566Z,52.05
2022-11-17T00:34:15.917Z,51.03
2022-11-17T00:36:47.280Z,51.24
2022-11-17T00:39:15.006Z,50.30
2022-11-17T00:41:42.110Z,53.84
2022-11-17T00:44:09.314Z,55.70
2022-11-17T00:46:37.318Z,51.47
2022-11-17T00:49:07.713Z,51.20
2022-11-17T00:51:34.832Z,50.09
2022-11-17T00:54:02.821Z,50.49
2022-11-17T00:56:29.949Z,50.62
2022-11-17T00:58:57.079Z,51.70
2022-11-17T01:01:24.555Z,51.92
2022-11-17T01:04:02.710Z,51.60
2022-11-17T01:06:31.596Z,52.33
2022-11-17T01:09:00.585Z,52.64
2022-11-17T01:11:27.872Z,52.67
2022-11-17T01:13:56.163Z,53.10
2022-11-17T01:16:23.335Z,54.25
2022-11-17T01:18:50.957Z,53.53
2022-11-17T01:21:19.560Z,51.75
2022-11-17T01:23:49.362Z,51.39
2022-11-17T01:26:21.318Z,52.86
2022-11-17T01:28:48.755Z,52.83
2022-11-17T01:31:20.251Z,54.02
2022-11-17T01:33:47.752Z,52.51
2022-11-17T01:36:19.471Z,51.96
2022-11-17T01:38:46.629Z,53.26
2022-11-17T01:41:20.990Z,52.88
2022-11-17T01:43:52.353Z,54.42
2022-11-17T01:46:30.968Z,54.18
2022-11-17T01:49:03.512Z,52.09
2022-11-17T01:51:30.647Z,52.76
2022-11-17T01:53:57.753Z,55.81
2022-11-17T01:56:27.101Z,53.63
2022-11-17T01:58:55.724Z,55.26
2022-11-17T02:01:22.927Z,54.61
2022-11-17T02:03:51.632Z,56.14
2022-11-17T02:06:21.066Z,58.92
2022-11-17T02:08:48.374Z,59.09
2022-11-17T02:11:17.768Z,56.66
2022-11-17T02:13:47.559Z,56.24
2022-11-17T02:16:15.149Z,54.87
2022-11-17T02:18:42.471Z,56.06
2022-11-17T02:21:28.267Z,58.26
2022-11-17T02:24:13.911Z,57.12
2022-11-17T02:26:48.407Z,57.42
2022-11-17T02:29:19.514Z,56.36
2022-11-17T02:31:53.235Z,56.38
2022-11-17T02:34:23.358Z,56.76
2022-11-17T02:36:55.166Z,57.46
2022-11-17T02:39:22.211Z,58.50
2022-11-17T02:41:55.242Z,58.15
2022-11-17T02:44:28.640Z,56.43
2022-11-17T02:47:03.241Z,55.72
2022-11-17T02:49:33.324Z,55.19
2022-11-17T02:52:00.422Z,53.59
2022-11-17T02:54:28.276Z,53.95
2022-11-17T02:56:55.636Z,54.99
2022-11-17T02:59:26.819Z,55.45
2022-11-17T03:01:57.726Z,53.46
2022-11-17T03:04:34.359Z,53.71
2022-11-17T03:07:07.917Z,57.31
2022-11-17T03:09:54.204Z,58.09
2022-11-17T03:12:22.345Z,58.95
2022-11-17T03:15:04.469Z,57.28
2022-11-17T03:17:32.970Z,57.84
2022-11-17T03:20:03.289Z,56.95
2022-11-17T03:22:43.825Z,56.49
2022-11-17T03:25:12.424Z,56.74
2022-11-17T03:27:40.543Z,54.32
2022-11-17T03:30:08.817Z,55.03
2022-11-17T03:32:40.199Z,55.68
2022-11-17T03:35:08.621Z,54.37
2022-11-17T03:37:36.629Z,54.67
2022-11-17T03:40:13.269Z,58.74
2022-11-17T03:42:43.202Z,57.53
2022-11-17T03:45:30.599Z,57.84
2022-11-17T03:48:03.090Z,57.62
2022-11-17T03:50:32.232Z,57.31
2022-11-17T03:53:00.470Z,57.37
2022-11-17T03:55:27.875Z,56.26
2022-11-17T03:57:57.320Z,58.06
2022-11-17T04:00:25.297Z,56.64
2022-11-17T04:02:56.201Z,57.44
2022-11-17T04:05:23.331Z,56.80
2022-11-17T04:07:50.484Z,56.68
2022-11-17T04:10:21.627Z,57.47
2022-11-17T04:13:07.689Z,56.79
2022-11-17T04:15:53.668Z,56.94
2022-11-17T04:18:21.154Z,58.65
2022-11-17T04:20:52.717Z,60.63
2022-11-17T04:23:19.961Z,57.15
2022-11-17T04:26:06.773Z,56.19
2022-11-17T04:28:37.767Z,55.64
2022-11-17T04:31:17.247Z,53.84
2022-11-17T04:33:45.419Z,55.52
2022-11-17T04:36:13.330Z,57.19
2022-11-17T04:38:41.121Z,54.10
2022-11-17T04:41:47.422Z,52.60
2022-11-17T04:44:15.236Z,51.88
2022-11-17T04:46:44.600Z,52.78
2022-11-17T04:49:11.831Z,52.53
2022-11-17T04:51:39.213Z,52.13
2022-11-17T04:54:07.252Z,54.17
2022-11-17T04:56:34.354Z,54.56
2022-11-17T04:59:01.452Z,52.96
2022-11-17T05:01:29.070Z,52.82
2022-11-17T05:03:56.954Z,54.35
2022-11-17T05:06:28.050Z,54.59
2022-11-17T05:08:56.042Z,56.27
2022-11-17T05:11:42.395Z,58.21
2022-11-17T05:14:09.992Z,55.92
2022-11-17T05:16:55.797Z,55.55
2022-11-17T05:19:24.161Z,55.22
2022-11-17T05:21:51.268Z,54.17
2022-11-17T05:24:18.402Z,53.59
2022-11-17T05:26:46.230Z,51.33
2022-11-17T05:29:14.588Z,51.77
2022-11-17T05:31:41.712Z,53.45
2022-11-17T05:34:10.096Z,53.86
2022-11-17T05:36:37.278Z,54.83
2022-11-17T05:39:04.423Z,55.13
2022-11-17T05:41:31.817Z,54.12
2022-11-17T05:43:59.122Z,52.42
2022-11-17T05:46:26.276Z,51.98
2022-11-17T05:48:53.793Z,52.04
2022-11-17T05:51:22.223Z,53.02
2022-11-17T05:53:49.488Z,50.71
2022-11-17T05:56:28.201Z,50.78
2022-11-17T05:58:57.472Z,52.45
2022-11-17T06:01:24.964Z,54.49
2022-11-17T06:03:52.910Z,52.61
2022-11-17T06:06:20.152Z,53.44
2022-11-17T06:08:47.385Z,53.34
2022-11-17T06:11:16.876Z,51.72
2022-11-17T06:13:43.985Z,51.15
2022-11-17T06:16:11.619Z,53.83
2022-11-17T06:18:41.686Z,52.99
2022-11-17T06:21:09.221Z,52.85
2022-11-17T06:23:36.671Z,52.08
2022-11-17T06:26:05.064Z,54.58
2022-11-17T06:28:32.181Z,51.64
2022-11-17T06:30:59.295Z,52.97
2022-11-17T06:33:27.866Z,54.76
2022-11-17T06:35:54.957Z,55.34
2022-11-17T06:38:22.139Z,54.02
2022-11-17T06:40:49.565Z,54.15
2022-11-17T06:43:16.971Z,50.73
2022-11-17T06:45:44.868Z,52.44
2022-11-17T06:48:13.286Z,54.38
2022-11-17T06:50:40.553Z,54.21
2022-11-17T06:53:08.428Z,53.07
2022-11-17T06:55:36.636Z,52.75
2022-11-17T06:58:06.337Z,53.33
2022-11-17T07:00:33.920Z,53.14
2022-11-17T07:03:01.963Z,53.10
2022-11-17T07:05:29.471Z,54.96
2022-11-17T07:07:57.281Z,54.50
2022-11-17T07:10:24.864Z,53.29
2022-11-17T07:12:51.973Z,51.69
2022-11-17T07:15:19.225Z,55.86
2022-11-17T07:17:46.631Z,59.78
2022-11-17T07:20:13.921Z,58.54
2022-11-17T07:22:44.021Z,53.62
2022-11-17T07:25:11.595Z,57.34
2022-11-17T07:27:38.726Z,62.24
2022-11-17T07:30:06.415Z,60.77
2022-11-17T07:32:34.178Z,60.91
2022-11-17T07:35:02.131Z,57.96
2022-11-17T07:37:33.409Z,58.90
2022-11-17T07:40:00.794Z,61.41
2022-11-17T07:42:27.876Z,62.73
2022-11-17T07:44:54.997Z,56.95
2022-11-17T07:47:22.361Z,54.70
2022-11-17T07:49:49.479Z,57.82
2022-11-17T07:52:16.595Z,57.27
2022-11-17T07:54:43.993Z,56.10
2022-11-17T07:57:11.151Z,55.26
2022-11-17T07:59:38.285Z,61.02
2022-11-17T08:02:05.866Z,57.89
2022-11-17T08:04:33.239Z,54.71
2022-11-17T08:07:00.768Z,54.22
2022-11-17T08:09:27.906Z,54.31
2022-11-17T08:11:56.232Z,55.42
2022-11-17T08:14:23.364Z,54.66
2022-11-17T08:16:50.461Z,55.74
2022-11-17T08:19:17.825Z,56.94
2022-11-17T08:21:44.943Z,55.99
2022-11-17T08:24:12.213Z,55.98
2022-11-17T08:26:39.586Z,55.46
2022-11-17T08:29:06.984Z,57.02
2022-11-17T08:31:34.088Z,55.27
2022-11-17T08:34:01.475Z,55.77
2022-11-17T08:36:28.593Z,55.27
2022-11-17T08:38:55.695Z,55.23
2022-11-17T08:41:23.239Z,55.32
2022-11-17T08:43:50.742Z,53.36
2022-11-17T08:46:17.922Z,52.19
2022-11-17T08:48:45.280Z,51.28
2022-11-17T08:51:12.428Z,54.95
2022-11-17T08:53:39.544Z,51.69
2022-11-17T08:56:10.635Z,55.03
2022-11-17T08:58:38.512Z,59.09
2022-11-17T09:01:07.252Z,57.17
2022-11-17T09:03:34.625Z,53.86
2022-11-17T09:06:02.274Z,55.38
2022-11-17T09:08:44.933Z,55.27
2022-11-17T09:11:14.410Z,55.40
2022-11-17T09:13:42.223Z,56.65
2022-11-17T09:16:10.514Z,53.50
2022-11-17T09:18:39.009Z,53.30
2022-11-17T09:21:09.380Z,52.14
2022-11-17T09:23:36.936Z,51.27
2022-11-17T09:26:06.275Z,50.59
2022-11-17T09:28:33.821Z,52.55
2022-11-17T09:31:05.770Z,49.60
2022-11-17T09:33:33.185Z,50.31
2022-11-17T09:36:00.301Z,52.84
2022-11-17T09:38:27.397Z,52.16
2022-11-17T09:40:57.073Z,50.61
2022-11-17T09:43:26.442Z,49.21
2022-11-17T09:45:55.075Z,51.22
2022-11-17T09:48:40.698Z,52.06
2022-11-17T09:51:09.977Z,51.75
2022-11-17T09:53:49.672Z,53.51
2022-11-17T09:56:16.791Z,52.30
2022-11-17T09:58:44.127Z,51.33
2022-11-17T10:01:15.211Z,52.24
2022-11-17T10:03:46.233Z,52.89
2022-11-17T10:06:20.844Z,50.69
2022-11-17T10:08:51.241Z,52.13
2022-11-17T10:11:33.346Z,50.89
2022-11-17T10:14:15.960Z,52.40
2022-11-17T10:16:44.156Z,51.99
2022-11-17T10:19:16.624Z,52.34
2022-11-17T10:21:43.944Z,52.15
2022-11-17T10:24:11.414Z,51.54
2022-11-17T10:26:44.149Z,52.25
2022-11-17T10:29:12.469Z,50.55
2022-11-17T10:31:42.646Z,51.89
2022-11-17T10:34:11.112Z,50.74
2022-11-17T10:36:44.681Z,49.75
2022-11-17T10:39:31.174Z,50.66
2022-11-17T10:41:58.559Z,49.98
2022-11-17T10:44:26.101Z,50.36
2022-11-17T10:47:00.683Z,49.12
2022-11-17T10:49:39.822Z,52.06
2022-11-17T10:52:17.229Z,50.79
2022-11-17T10:54:44.650Z,54.39
2022-11-17T10:57:19.617Z,53.01
2022-11-17T10:59:56.191Z,51.92
2022-11-17T11:02:37.203Z,52.95
2022-11-17T11:05:05.317Z,50.48
2022-11-17T11:07:32.493Z,50.13
2022-11-17T11:10:02.692Z,52.06
2022-11-17T11:12:33.143Z,48.43
2022-11-17T11:15:00.416Z,49.36
2022-11-17T11:17:27.654Z,48.96
2022-11-17T11:19:55.068Z,49.08
2022-11-17T11:22:31.164Z,47.54
2022-11-17T11:25:11.045Z,49.04
2022-11-17T11:27:50.495Z,51.36
2022-11-17T11:30:18.477Z,48.27
2022-11-17T11:32:54.911Z,47.59
2022-11-17T11:35:41.238Z,48.44
2022-11-17T11:38:44.810Z,46.97
2022-11-17T11:41:21.276Z,47.91
2022-11-17T11:43:51.450Z,45.10
2022-11-17T11:46:23.493Z,47.58
2022-11-17T11:48:50.598Z,47.63
2022-11-17T11:51:18.784Z,49.34
2022-11-17T11:53:55.361Z,47.38
2022-11-17T11:56:24.719Z,45.99
2022-11-17T11:59:02.980Z,48.20
2022-11-17T12:01:32.496Z,49.07
2022-11-17T12:04:05.994Z,48.00
2022-11-17T12:06:42.207Z,46.32
2022-11-17T12:09:27.908Z,45.17
2022-11-17T12:12:00.797Z,48.06
2022-11-17T12:14:28.100Z,47.27
2022-11-17T12:17:13.188Z,47.11
2022-11-17T12:19:54.068Z,45.69
2022-11-17T12:22:30.144Z,44.25
2022-11-17T12:24:58.086Z,44.21
2022-11-17T12:27:34.477Z,44.55
2022-11-17T12:30:02.484Z,43.46
2022-11-17T12:32:48.557Z,44.63
2022-11-17T12:35:22.079Z,44.93
2022-11-17T12:37:49.195Z,47.28
2022-11-17T12:40:35.130Z,48.78
2022-11-17T12:43:20.814Z,47.10
2022-11-17T12:46:08.396Z,46.26
2022-11-17T12:48:35.721Z,45.90
2022-11-17T12:51:15.435Z,44.22
2022-11-17T12:53:52.419Z,44.22
2022-11-17T12:56:30.305Z,43.41
2022-11-17T12:59:16.323Z,43.20
2022-11-17T13:01:56.207Z,42.97
2022-11-17T13:04:33.690Z,43.83
2022-11-17T13:07:01.988Z,43.52
2022-11-17T13:09:30.039Z,42.67
2022-11-17T13:12:07.286Z,42.25
2022-11-17T13:14:35.357Z,42.68
2022-11-17T13:17:03.006Z,43.07
2022-11-17T13:19:40.107Z,42.33
2022-11-17T13:22:18.782Z,44.30
2022-11-17T13:24:46.675Z,45.07
2022-11-17T13:27:18.110Z,43.45
2022-11-17T13:29:45.235Z,43.47
2022-11-17T13:32:12.787Z,43.98
2022-11-17T13:34:50.712Z,45.00
2022-11-17T13:37:19.492Z,44.98
2022-11-17T13:40:03.613Z,44.82
2022-11-17T13:42:31.564Z,44.74
2022-11-17T13:45:00.194Z,44.52
2022-11-17T13:47:28.519Z,45.48
2022-11-17T13:49:55.601Z,43.76
2022-11-17T13:52:38.054Z,44.41
2022-11-17T13:55:13.055Z,43.53
2022-11-17T13:57:40.436Z,43.94
2022-11-17T14:00:15.792Z,42.79
2022-11-17T14:03:15.829Z,42.85
2022-11-17T14:05:54.299Z,42.37
2022-11-17T14:08:22.755Z,41.62
2022-11-17T14:10:49.869Z,41.60
2022-11-17T14:13:22.781Z,41.22
2022-11-17T14:15:53.677Z,40.94
2022-11-17T14:18:24.041Z,40.21
2022-11-17T14:21:03.807Z,40.64
2022-11-17T14:23:30.899Z,41.09
2022-11-17T14:25:58.278Z,41.22
2022-11-17T14:28:25.436Z,42.25
2022-11-17T14:30:53.538Z,42.53
2022-11-17T14:33:21.044Z,41.98
2022-11-17T14:35:52.644Z,42.57
2022-11-17T14:38:20.870Z,42.01
2022-11-17T14:40:49.020Z,42.61
2022-11-17T14:43:16.135Z,42.13
2022-11-17T14:45:43.237Z,41.76
2022-11-17T14:48:13.516Z,41.62
2022-11-17T14:50:44.807Z,40.54
2022-11-17T14:53:12.177Z,42.06
2022-11-17T14:55:39.277Z,42.04
2022-11-17T14:58:06.362Z,41.91
2022-11-17T15:00:33.732Z,42.02
2022-11-17T15:03:01.394Z,41.96
2022-11-17T15:05:29.713Z,42.43
2022-11-17T15:07:57.085Z,42.61
2022-11-17T15:10:24.282Z,42.43
2022-11-17T15:12:51.493Z,42.92
2022-11-17T15:15:18.861Z,43.01
2022-11-17T15:17:45.984Z,42.89
2022-11-17T15:20:13.132Z,42.24
2022-11-17T15:22:40.499Z,42.63
2022-11-17T15:25:08.047Z,42.73
2022-11-17T15:27:35.177Z,42.96
2022-11-17T15:30:04.981Z,42.61
2022-11-17T15:32:32.092Z,42.46
2022-11-17T15:34:59.258Z,42.42
2022-11-17T15:37:27.202Z,42.49
2022-11-17T15:39:54.316Z,42.43
2022-11-17T15:42:21.457Z,42.14
2022-11-17T15:44:48.820Z,42.13
2022-11-17T15:47:15.923Z,42.12
2022-11-17T15:49:43.001Z,42.77
2022-11-17T15:52:10.366Z,42.41
2022-11-17T15:54:37.471Z,42.25
2022-11-17T15:57:04.624Z,43.28
2022-11-17T15:59:32.029Z,43.31
2022-11-17T16:01:59.164Z,43.67
2022-11-17T16:04:26.558Z,43.88
2022-11-17T16:06:53.729Z,43.58
2022-11-17T16:09:21.246Z,43.50
2022-11-17T16:11:48.664Z,43.92
2022-11-17T16:14:16.909Z,43.86
2022-11-17T16:16:46.324Z,44.33
2022-11-17T16:19:16.453Z,45.01
2022-11-17T16:21:44.581Z,45.77
2022-11-17T16:24:11.764Z,44.61
2022-11-17T16:26:43.373Z,44.68
2022-11-17T16:29:10.689Z,44.80
2022-11-17T16:31:38.717Z,44.74
2022-11-17T16:34:06.961Z,44.11
2022-11-17T16:36:36.860Z,44.83
2022-11-17T16:39:05.176Z,44.25
2022-11-17T16:41:34.168Z,44.67
2022-11-17T16:44:01.343Z,45.59
2022-11-17T16:46:31.590Z,44.51
2022-11-17T16:51:48.413Z,45.12
2022-11-17T16:54:16.129Z,45.69
2022-11-17T16:56:43.731Z,45.52
2022-11-17T16:59:11.663Z,45.59
2022-11-17T17:01:39.687Z,46.82
2022-11-17T17:04:07.561Z,48.37
2022-11-17T17:06:34.897Z,47.90
2022-11-17T17:09:04.435Z,47.34
2022-11-17T17:11:32.630Z,47.63
2022-11-17T17:14:01.617Z,47.96
2022-11-17T17:16:29.650Z,48.39
2022-11-17T17:18:59.098Z,48.33
2022-11-17T17:21:26.891Z,47.53
2022-11-17T17:23:54.379Z,46.95
2022-11-17T17:26:22.474Z,46.97
2022-11-17T17:28:50.393Z,46.92
2022-11-17T17:31:21.639Z,46.89
2022-11-17T17:33:50.659Z,46.69
2022-11-17T17:36:19.376Z,46.44
2022-11-17T17:38:50.281Z,46.41
2022-11-17T17:41:22.376Z,45.59
2022-11-17T17:43:54.083Z,46.58
2022-11-17T17:46:22.913Z,45.97
2022-11-17T17:48:50.784Z,46.26
2022-11-17T17:51:19.056Z,46.93
2022-11-17T17:53:50.402Z,46.62
2022-11-17T17:56:18.884Z,45.92
2022-11-17T17:58:49.027Z,46.32
2022-11-17T18:01:18.005Z,46.24
2022-11-17T18:03:46.710Z,46.44
2022-11-17T18:06:14.900Z,45.80
2022-11-17T18:08:43.040Z,45.90
2022-11-17T18:11:13.071Z,46.46
2022-11-17T18:13:42.189Z,46.18
2022-11-17T18:16:10.874Z,45.38
2022-11-17T18:18:38.606Z,45.76
2022-11-17T18:21:07.399Z,46.02
2022-11-17T18:23:34.964Z,46.58
2022-11-17T18:26:13.321Z,46.03
2022-11-17T18:28:40.981Z,45.73
2022-11-17T18:31:08.886Z,45.65
2022-11-17T18:33:36.771Z,45.65
2022-11-17T18:36:05.348Z,46.05
2022-11-17T18:38:36.130Z,46.68
2022-11-17T18:41:07.586Z,45.23
2022-11-17T18:43:36.038Z,46.47
2022-11-17T18:46:08.401Z,46.51
2022-11-17T18:48:36.841Z,46.23
2022-11-17T18:51:19.014Z,47.08
2022-11-17T18:53:47.188Z,46.49
2022-11-17T18:56:15.405Z,46.35
2022-11-17T18:58:43.402Z,45.87
2022-11-17T19:01:13.140Z,45.98
2022-11-17T19:03:41.287Z,46.73
2022-11-17T19:06:09.881Z,46.81
2022-11-17T19:08:37.620Z,45.92
2022-11-17T19:11:06.459Z,45.87
2022-11-17T19:13:34.909Z,47.00
2022-11-17T19:16:12.069Z,46.10
2022-11-17T19:18:39.845Z,46.00
2022-11-17T19:21:09.388Z,46.44
2022-11-17T19:23:37.271Z,45.87
2022-11-17T19:26:11.412Z,45.87
2022-11-17T19:28:39.793Z,45.27
2022-11-17T19:31:08.603Z,45.50
2022-11-17T19:33:37.488Z,46.63
2022-11-17T19:36:05.726Z,45.50
2022-11-17T19:38:34.244Z,46.50
2022-11-17T19:41:04.552Z,45.76
2022-11-17T19:43:34.486Z,45.52
2022-11-17T19:46:02.988Z,48.55
2022-11-17T19:48:30.678Z,46.64
2022-11-17T19:50:58.559Z,46.71
2022-11-17T19:53:26.441Z,47.45
2022-11-17T19:55:54.254Z,46.35
2022-11-17T19:58:22.839Z,46.47
2022-11-17T20:00:50.541Z,47.32
2022-11-17T20:03:18.496Z,46.90
2022-11-17T20:05:46.139Z,46.06
2022-11-17T20:08:14.206Z,45.49
2022-11-17T20:10:43.419Z,45.01
2022-11-17T20:13:12.451Z,44.28
2022-11-17T20:15:40.046Z,45.08
2022-11-17T20:18:08.470Z,44.94
2022-11-17T20:20:36.943Z,48.54
2022-11-17T20:23:04.956Z,46.52
2022-11-17T20:25:32.821Z,47.01
2022-11-17T20:28:01.523Z,48.42
2022-11-17T20:30:29.057Z,47.90
2022-11-17T20:32:56.802Z,47.43
2022-11-17T20:35:27.412Z,46.49
2022-11-17T20:37:54.789Z,45.78
2022-11-17T20:40:22.780Z,46.08
2022-11-17T20:42:50.448Z,45.94
2022-11-17T20:45:18.331Z,45.59
2022-11-17T20:47:47.905Z,45.43
2022-11-17T20:50:15.696Z,45.34
2022-11-17T20:52:43.379Z,45.30
2022-11-17T20:55:11.169Z,45.00
2022-11-17T20:57:38.822Z,44.60
2022-11-17T21:00:07.127Z,45.39
2022-11-17T21:02:35.011Z,44.48
2022-11-17T21:05:02.376Z,44.09
2022-11-17T21:07:30.183Z,43.77
2022-11-17T21:09:58.035Z,44.15
2022-11-17T21:12:25.479Z,44.17
2022-11-17T21:14:54.633Z,44.39
2022-11-17T21:17:40.741Z,44.02
2022-11-17T21:20:08.241Z,43.74
2022-11-17T21:22:37.100Z,43.65
2022-11-17T21:25:05.313Z,43.91
2022-11-17T21:27:32.662Z,43.64
2022-11-17T21:30:00.666Z,43.62
2022-11-17T21:32:28.135Z,43.53
2022-11-17T21:34:57.333Z,43.81
2022-11-17T21:37:24.800Z,43.51
2022-11-17T21:39:52.174Z,43.96
2022-11-17T21:42:19.361Z,43.99
2022-11-17T21:44:47.088Z,43.96
2022-11-17T21:47:14.327Z,43.31
2022-11-17T21:49:41.536Z,43.05
2022-11-17T21:52:09.267Z,43.05
2022-11-17T21:54:39.035Z,42.75
2022-11-17T21:57:06.156Z,44.21
2022-11-17T21:59:33.559Z,43.98
2022-11-17T22:02:00.708Z,43.52
2022-11-17T22:04:28.076Z,43.92
2022-11-17T22:06:57.132Z,43.76
2022-11-17T22:09:24.304Z,43.90
2022-11-17T22:11:51.980Z,43.71
2022-11-17T22:14:19.633Z,44.13
2022-11-17T22:16:47.521Z,43.99
2022-11-17T22:19:17.597Z,43.90
2022-11-17T22:21:45.296Z,43.77
2022-11-17T22:24:12.574Z,44.05
2022-11-17T22:26:41.090Z,43.75
2022-11-17T22:29:22.021Z,43.68
2022-11-17T22:31:52.676Z,43.69
2022-11-17T22:34:19.805Z,43.83
2022-11-17T22:36:46.904Z,43.43
2022-11-17T22:39:14.478Z,43.90
2022-11-17T22:41:41.807Z,44.05
2022-11-17T22:44:08.997Z,43.47
2022-11-17T22:46:36.384Z,43.39
2022-11-17T22:49:03.509Z,43.11
2022-11-17T22:51:49.109Z,43.13
2022-11-17T22:54:16.699Z,43.27
2022-11-17T22:56:43.847Z,43.43
2022-11-17T22:59:10.956Z,43.63
2022-11-17T23:01:38.318Z,43.22
2022-11-17T23:04:06.072Z,43.14
2022-11-17T23:06:33.183Z,43.22
2022-11-17T23:09:00.596Z,43.41
2022-11-17T23:11:37.109Z,43.28
2022-11-17T23:14:09.473Z,44.02
2022-11-17T23:16:37.482Z,44.26
2022-11-17T23:19:04.899Z,44.33
2022-11-17T23:21:32.044Z,44.15
2022-11-17T23:23:59.158Z,44.03
2022-11-17T23:26:26.543Z,43.82
2022-11-17T23:28:53.713Z,43.45
2022-11-17T23:31:20.834Z,43.54
2022-11-17T23:33:48.249Z,43.50
2022-11-17T23:36:16.058Z,43.85
2022-11-17T23:38:43.150Z,43.80
2022-11-17T23:41:11.844Z,43.60
2022-11-17T23:43:38.942Z,43.83
2022-11-17T23:46:06.062Z,44.04
2022-11-17T23:48:33.413Z,44.07
2022-11-17T23:51:07.458Z,44.27
2022-11-17T23:53:34.851Z,44.16
2022-11-17T23:56:02.112Z,44.43
2022-11-17T23:58:30.111Z,44.09
